Wetterdaten: aktuell Montag, 26.07.2021 21:00
Datum Zeit Temp. A. Feuchte A. Luftdruck Regen Wind Richtung Richtung Sonnenschein ET UV Solar Taupunkt Windchill Windben
26.07.2021 21:00 22,9 C 72 % 1011,2 hPa 0,0 l/m 0,0 km/h (0 Bft) S 173 0 min 0,025 mm 0,0 UV-I 0 W/m 17,6 C 22,9 C 0,0 km/h (0 Bft)
26.07.2021 20:00 23,6 C 70 % 1010,6 hPa 0,0 l/m 0,4 km/h (0 Bft) S 178 0 min 0,051 mm 0,0 UV-I 51 W/m 17,8 C 23,6 C 6,4 km/h (2 Bft)
26.07.2021 19:00 23,9 C 69 % 1011,2 hPa 0,0 l/m 0,0 km/h (0 Bft) W-SW 250 20 min 0,152 mm 0,0 UV-I 114 W/m 17,9 C 23,9 C 0,0 km/h (0 Bft)
26.07.2021 18:00 23,8 C 71 % 1011,4 hPa 0,0 l/m 0,0 km/h (0 Bft) O-NO 71 10 min 0,077 mm 0,9 UV-I 151 W/m 18,2 C 23,8 C 0,0 km/h (0 Bft)
26.07.2021 17:00 23,3 C 76 % 1011,4 hPa 0,2 l/m 0,0 km/h (0 Bft) N-NW 339 0 min 0,077 mm 1,2 UV-I 234 W/m 18,8 C 23,3 C 1,6 km/h (1 Bft)
26.07.2021 16:00 27,1 C 53 % 1010,9 hPa 0,0 l/m 0,2 km/h (0 Bft) S 177 5 min 0,228 mm 0,8 UV-I 105 W/m 16,7 C 27,1 C 6,4 km/h (2 Bft)
26.07.2021 15:00 27,6 C 51 % 1010,9 hPa 0,0 l/m 0,1 km/h (0 Bft) NW 311 30 min 0,305 mm 2,0 UV-I 295 W/m 16,5 C 27,6 C 3,2 km/h (1 Bft)
26.07.2021 14:00 27,4 C 53 % 1010,8 hPa 0,0 l/m 1,2 km/h (1 Bft) W 268 50 min 0,406 mm 3,4 UV-I 483 W/m 17,0 C 27,4 C 8,0 km/h (2 Bft)
26.07.2021 13:00 27,1 C 55 % 1011,2 hPa 0,0 l/m 0,2 km/h (0 Bft) SO 140 40 min 0,381 mm 4,0 UV-I 615 W/m 17,3 C 27,1 C 4,8 km/h (1 Bft)
26.07.2021 12:00 26,6 C 56 % 1011,4 hPa 0,0 l/m 1,3 km/h (1 Bft) N-NW 343 35 min 0,305 mm 4,3 UV-I 519 W/m 17,1 C 26,6 C 8,0 km/h (2 Bft)
26.07.2021 11:00 25,9 C 65 % 1011,2 hPa 0,0 l/m 0,3 km/h (0 Bft) W 275 40 min 0,280 mm 3,3 UV-I 619 W/m 18,8 C 25,9 C 8,0 km/h (2 Bft)
26.07.2021 10:00 23,0 C 77 % 1011,3 hPa 0,0 l/m 0,6 km/h (0 Bft) N 355 0 min 0,050 mm 1,7 UV-I 83 W/m 18,7 C 23,0 C 4,8 km/h (1 Bft)
26.07.2021 09:00 21,3 C 81 % 1011,1 hPa 0,0 l/m 0,5 km/h (0 Bft) S-SW 196 0 min 0,051 mm 1,2 UV-I 74 W/m 17,9 C 21,3 C 4,8 km/h (1 Bft)
26.07.2021 08:00 20,2 C 83 % 1011,0 hPa 0,0 l/m 0,4 km/h (0 Bft) S-SW 194 20 min 0,076 mm 0,6 UV-I 67 W/m 17,2 C 20,2 C 4,8 km/h (1 Bft)
26.07.2021 07:00 18,4 C 87 % 1010,8 hPa 0,0 l/m 0,9 km/h (0 Bft) S 182 25 min 0,027 mm 0,0 UV-I 72 W/m 16,2 C 18,4 C 4,8 km/h (1 Bft)
26.07.2021 06:00 17,6 C 88 % 1010,7 hPa 0,0 l/m 0,0 km/h (0 Bft) S 182 15 min 0,000 mm 0,0 UV-I 33 W/m 15,6 C 17,6 C 0,0 km/h (0 Bft)
26.07.2021 05:00 17,8 C 88 % 1010,5 hPa 0,0 l/m 0,0 km/h (0 Bft) N 0 0 min 0,000 mm 0,0 UV-I 0 W/m 15,8 C 17,8 C 0,0 km/h (0 Bft)
26.07.2021 04:00 18,2 C 87 % 1010,0 hPa 0,0 l/m 0,0 km/h (0 Bft) N 0 0 min 0,000 mm 0,0 UV-I 0 W/m 16,0 C 18,2 C 0,0 km/h (0 Bft)
26.07.2021 03:00 18,6 C 87 % 1009,9 hPa 0,0 l/m 0,0 km/h (0 Bft) N 0 0 min 0,025 mm 0,0 UV-I 0 W/m 16,4 C 18,6 C 0,0 km/h (0 Bft)
26.07.2021 02:00 19,1 C 86 % 1010,0 hPa 0,0 l/m 0,0 km/h (0 Bft) N 0 0 min 0,025 mm 0,0 UV-I 0 W/m 16,7 C 19,1 C 0,0 km/h (0 Bft)
26.07.2021 01:00 19,1 C 85 % 1010,0 hPa 0,0 l/m 0,0 km/h (0 Bft) N 0 0 min 0,025 mm 0,0 UV-I 0 W/m 16,5 C 19,1 C 0,0 km/h (0 Bft)
26.07.2021 00:00 19,7 C 84 % 1009,9 hPa 0,0 l/m 0,0 km/h (0 Bft) N 0 0 min 0,025 mm 0,0 UV-I 0 W/m 16,9 C 19,7 C 0,0 km/h (0 Bft)
_ Min-Zeit 05:35 15:10 03:20 - 00:00 - - - - - - 15:10 05:35 00:00
Minimum _ 17,6 C 49 % 1009,8 hPa - 0,0 km/h (0 Bft) - - - - - - 15,4 C 17,6 C 0,0 km/h (0 Bft)
_ Max-Zeit 13:40 04:05 16:40 17:00 16:30 - - 05:40 14:00 11:50 11:50 10:50 13:40 16:25
Maximum _ 27,8 C 88 % 1011,6 hPa 0,2 l/m 4,6 km/h
W-SW (1 Bft)
- - 5 min 0,406 mm 4,7 UV-I 837 W/m 19,2 C 27,8 C 19,3 km/h
S-SW (3 Bft)
Durchschnitt _ 22,4 C 73 % 1010,8 hPa #0,2 l/m 0,4 km/h (0 Bft) W-SW - #4:50 h #2,616 mm 2,1 UV-I 252 W/m 17,1 C 22,4 C 3,4 km/h (1 Bft)